createdAt,value
2019-06-15T00:00:58.523Z,0.30
2019-06-15T00:03:26.825Z,0.33
2019-06-15T00:05:54.142Z,0.40
2019-06-15T00:08:21.444Z,0.30
2019-06-15T00:10:48.781Z,0.47
2019-06-15T00:13:17.873Z,0.40
2019-06-15T00:15:45.213Z,0.53
2019-06-15T00:18:12.637Z,0.50
2019-06-15T00:20:40.078Z,0.40
2019-06-15T00:23:07.494Z,0.50
2019-06-15T00:25:34.962Z,0.43
2019-06-15T00:28:02.362Z,0.57
2019-06-15T00:30:29.689Z,0.40
2019-06-15T00:32:57.077Z,0.50
2019-06-15T00:35:24.518Z,0.40
2019-06-15T00:37:51.864Z,0.50
2019-06-15T00:40:19.211Z,0.60
2019-06-15T00:42:46.538Z,0.57
2019-06-15T00:45:13.955Z,0.40
2019-06-15T00:47:41.350Z,0.60
2019-06-15T00:50:08.898Z,0.47
2019-06-15T00:52:36.111Z,0.50
2019-06-15T00:55:03.352Z,0.50
2019-06-15T00:57:30.873Z,0.53
2019-06-15T00:59:58.448Z,0.50
2019-06-15T01:02:25.805Z,0.60
2019-06-15T01:04:53.009Z,0.40
2019-06-15T01:07:20.349Z,0.40
2019-06-15T01:09:47.657Z,0.30
2019-06-15T01:12:15.195Z,0.23
2019-06-15T01:14:42.575Z,0.43
2019-06-15T01:17:09.913Z,0.50
2019-06-15T01:19:37.367Z,0.30
2019-06-15T01:22:04.940Z,0.30
2019-06-15T01:24:32.371Z,0.33
2019-06-15T01:26:59.703Z,0.50
2019-06-15T01:29:27.084Z,0.53
2019-06-15T01:31:54.473Z,0.40
2019-06-15T01:34:21.800Z,0.40
2019-06-15T01:36:49.231Z,0.40
2019-06-15T01:39:16.534Z,0.30
2019-06-15T01:41:43.764Z,0.20
2019-06-15T01:44:11.088Z,0.20
2019-06-15T01:46:38.805Z,0.50
2019-06-15T01:49:06.140Z,0.30
2019-06-15T01:51:33.481Z,0.30
2019-06-15T01:54:00.797Z,0.37
2019-06-15T01:56:28.157Z,0.20
2019-06-15T01:58:55.542Z,0.57
2019-06-15T02:01:22.771Z,0.60
2019-06-15T02:03:50.086Z,0.30
2019-06-15T02:06:17.668Z,0.40
2019-06-15T02:08:44.984Z,0.50
2019-06-15T02:11:12.332Z,0.50
2019-06-15T02:13:39.884Z,0.40
2019-06-15T02:16:07.475Z,0.37
2019-06-15T02:18:34.673Z,0.47
2019-06-15T02:21:02.024Z,0.50
2019-06-15T02:23:30.441Z,0.37
2019-06-15T02:25:57.761Z,0.40
2019-06-15T02:28:25.102Z,0.40
2019-06-15T02:30:52.465Z,0.40
2019-06-15T02:33:19.978Z,0.20
2019-06-15T02:35:47.300Z,0.80
2019-06-15T02:38:14.609Z,0.50
2019-06-15T02:40:44.260Z,0.40
2019-06-15T02:43:11.477Z,0.20
2019-06-15T02:45:39.064Z,0.30
2019-06-15T02:48:06.407Z,0.40
2019-06-15T02:50:33.720Z,0.27
2019-06-15T02:53:00.951Z,0.40
2019-06-15T02:55:28.301Z,0.23
2019-06-15T02:57:55.677Z,0.30
2019-06-15T03:00:37.058Z,0.30
2019-06-15T03:03:04.729Z,0.30
2019-06-15T03:05:32.033Z,0.50
2019-06-15T03:07:59.673Z,0.37
2019-06-15T03:10:27.080Z,0.40
2019-06-15T03:12:54.357Z,0.47
2019-06-15T03:15:21.682Z,0.30
2019-06-15T03:17:50.329Z,0.47
2019-06-15T03:20:17.546Z,0.40
2019-06-15T03:22:44.873Z,0.40
2019-06-15T03:25:12.705Z,0.37
2019-06-15T03:27:40.111Z,0.40
2019-06-15T03:30:08.429Z,0.40
2019-06-15T03:32:35.774Z,0.40
2019-06-15T03:35:03.562Z,0.30
2019-06-15T03:37:30.877Z,0.30
2019-06-15T03:39:58.198Z,0.30
2019-06-15T03:42:25.565Z,0.47
2019-06-15T03:44:52.937Z,0.30
2019-06-15T03:47:20.281Z,0.30
2019-06-15T03:49:48.646Z,0.40
2019-06-15T03:52:16.074Z,0.50
2019-06-15T03:54:44.399Z,0.40
2019-06-15T03:57:11.773Z,0.40
2019-06-15T03:59:39.436Z,0.30
2019-06-15T04:02:06.992Z,0.30
2019-06-15T04:04:34.505Z,0.40
2019-06-15T04:07:01.833Z,0.30
2019-06-15T04:09:29.186Z,0.50
2019-06-15T04:11:56.505Z,0.50
2019-06-15T04:14:23.729Z,0.30
2019-06-15T04:16:51.061Z,0.40
2019-06-15T04:19:18.384Z,0.37
2019-06-15T04:21:45.692Z,0.40
2019-06-15T04:24:13.221Z,0.50
2019-06-15T04:26:40.521Z,0.40
2019-06-15T04:29:07.869Z,0.30
2019-06-15T04:31:35.406Z,0.40
2019-06-15T04:34:02.726Z,0.40
2019-06-15T04:36:30.075Z,0.30
2019-06-15T04:38:57.313Z,0.47
2019-06-15T04:41:24.728Z,0.30
2019-06-15T04:43:52.093Z,0.40
2019-06-15T04:46:19.431Z,0.30
2019-06-15T04:51:35.941Z,0.40
2019-06-15T04:54:03.377Z,0.50
2019-06-15T04:56:30.893Z,0.43
2019-06-15T04:58:58.440Z,0.50
2019-06-15T05:01:25.977Z,0.47
2019-06-15T05:03:53.517Z,0.30
2019-06-15T05:06:20.756Z,0.40
2019-06-15T05:08:48.077Z,0.40
2019-06-15T05:11:15.301Z,0.50
2019-06-15T05:13:42.634Z,0.40
2019-06-15T05:16:09.978Z,0.30
2019-06-15T05:18:37.313Z,0.30
2019-06-15T05:21:04.641Z,0.40
2019-06-15T05:23:32.197Z,0.40
2019-06-15T05:25:59.537Z,0.20
2019-06-15T05:28:26.822Z,0.53
2019-06-15T05:30:54.132Z,0.40
2019-06-15T05:33:21.597Z,0.40
2019-06-15T05:35:49.059Z,0.33
2019-06-15T05:38:16.464Z,0.47
2019-06-15T05:40:43.671Z,0.40
2019-06-15T05:43:12.237Z,0.40
2019-06-15T05:45:39.623Z,0.40
2019-06-15T05:48:06.934Z,0.47
2019-06-15T05:50:34.376Z,0.40
2019-06-15T05:53:01.686Z,0.50
2019-06-15T05:55:29.013Z,0.50
2019-06-15T05:57:56.335Z,0.33
2019-06-15T06:00:25.648Z,0.50
2019-06-15T06:02:53.176Z,0.40
2019-06-15T06:05:20.749Z,0.30
2019-06-15T06:07:48.281Z,0.40
2019-06-15T06:10:15.624Z,0.40
2019-06-15T06:12:42.939Z,0.47
2019-06-15T06:15:10.249Z,0.40
2019-06-15T06:17:38.065Z,0.30
2019-06-15T06:20:05.482Z,0.40
2019-06-15T06:22:33.001Z,0.50
2019-06-15T06:25:00.609Z,0.40
2019-06-15T06:27:36.148Z,0.40
2019-06-15T06:29:57.265Z,0.30
2019-06-15T06:32:24.793Z,0.60
2019-06-15T06:34:52.036Z,0.30
2019-06-15T06:37:19.722Z,0.33
2019-06-15T06:39:47.017Z,0.50
2019-06-15T06:42:14.386Z,0.40
2019-06-15T06:44:42.242Z,0.50
2019-06-15T06:47:12.248Z,0.40
2019-06-15T06:49:39.740Z,0.30
2019-06-15T06:52:07.439Z,0.40
2019-06-15T06:54:35.022Z,0.40
2019-06-15T06:57:02.479Z,0.40
2019-06-15T06:59:29.789Z,0.30
2019-06-15T07:01:57.157Z,0.50
2019-06-15T07:04:24.509Z,0.40
2019-06-15T07:06:51.876Z,0.50
2019-06-15T07:09:19.644Z,0.30
2019-06-15T07:11:47.475Z,0.50
2019-06-15T07:14:15.033Z,0.30
2019-06-15T07:16:56.406Z,0.40
2019-06-15T07:19:23.733Z,0.30
2019-06-15T07:21:50.925Z,0.30
2019-06-15T07:24:19.221Z,0.53
2019-06-15T07:26:47.645Z,0.33
2019-06-15T07:29:15.469Z,0.37
2019-06-15T07:31:42.816Z,0.30
2019-06-15T07:34:10.422Z,0.30
2019-06-15T07:36:38.190Z,0.40
2019-06-15T07:39:05.683Z,0.40
2019-06-15T07:41:33.379Z,0.33
2019-06-15T07:44:00.827Z,0.40
2019-06-15T07:46:28.372Z,0.40
2019-06-15T07:48:55.693Z,0.50
2019-06-15T07:51:23.254Z,0.30
2019-06-15T07:53:50.489Z,0.60
2019-06-15T07:56:17.797Z,0.40
2019-06-15T07:58:45.329Z,0.30
2019-06-15T08:01:12.770Z,0.30
2019-06-15T08:03:43.215Z,0.40
2019-06-15T08:06:09.334Z,0.40
2019-06-15T08:08:37.020Z,0.40
2019-06-15T08:11:05.351Z,0.43
2019-06-15T08:13:32.967Z,0.40
2019-06-15T08:16:00.721Z,0.40
2019-06-15T08:18:28.216Z,0.33
2019-06-15T08:20:55.530Z,0.40
2019-06-15T08:23:22.937Z,0.30
2019-06-15T08:25:50.347Z,0.43
2019-06-15T08:28:17.763Z,0.50
2019-06-15T08:30:46.020Z,0.40
2019-06-15T08:33:14.350Z,0.40
2019-06-15T08:35:41.808Z,0.40
2019-06-15T08:38:09.021Z,0.43
2019-06-15T08:40:36.341Z,0.67
2019-06-15T08:43:04.229Z,0.77
2019-06-15T08:45:31.813Z,0.60
2019-06-15T08:47:59.373Z,0.77
2019-06-15T08:50:26.723Z,0.53
2019-06-15T08:52:54.030Z,0.87
2019-06-15T08:55:21.746Z,0.47
2019-06-15T08:57:52.208Z,0.57
2019-06-15T09:00:20.332Z,0.90
2019-06-15T09:02:47.699Z,1.90
2019-06-15T09:05:14.988Z,0.77
2019-06-15T09:07:42.556Z,0.50
2019-06-15T09:10:09.773Z,1.07
2019-06-15T09:12:44.027Z,0.53
2019-06-15T09:15:11.376Z,0.50
2019-06-15T09:17:40.029Z,0.50
2019-06-15T09:20:07.546Z,0.53
2019-06-15T09:22:34.999Z,1.20
2019-06-15T09:25:02.308Z,0.50
2019-06-15T09:27:29.658Z,0.40
2019-06-15T09:29:56.995Z,0.60
2019-06-15T09:32:24.380Z,0.60
2019-06-15T09:34:51.841Z,0.40
2019-06-15T09:37:19.186Z,0.70
2019-06-15T09:39:46.549Z,0.80
2019-06-15T09:42:13.960Z,1.43
2019-06-15T09:44:41.280Z,0.50
2019-06-15T09:47:08.614Z,0.60
2019-06-15T09:49:36.145Z,0.47
2019-06-15T09:52:03.474Z,0.83
2019-06-15T09:54:30.804Z,0.57
2019-06-15T09:56:58.169Z,0.50
2019-06-15T09:59:26.487Z,0.83
2019-06-15T10:01:53.946Z,1.00
2019-06-15T10:04:21.254Z,0.60
2019-06-15T10:06:48.698Z,0.40
2019-06-15T10:09:16.017Z,0.60
2019-06-15T10:11:43.360Z,0.53
2019-06-15T10:14:10.913Z,0.40
2019-06-15T10:16:39.764Z,0.97
2019-06-15T10:19:07.097Z,0.67
2019-06-15T10:21:35.440Z,0.60
2019-06-15T10:24:03.038Z,0.50
2019-06-15T10:26:30.370Z,0.67
2019-06-15T10:28:57.865Z,1.03
2019-06-15T10:31:25.419Z,0.40
2019-06-15T10:33:52.829Z,0.40
2019-06-15T10:36:20.276Z,0.40
2019-06-15T10:38:47.504Z,1.33
2019-06-15T10:41:14.823Z,0.50
2019-06-15T10:43:42.250Z,0.60
2019-06-15T10:46:13.274Z,0.57
2019-06-15T10:48:42.455Z,0.60
2019-06-15T10:51:10.131Z,0.60
2019-06-15T10:53:39.223Z,0.50
2019-06-15T10:56:07.593Z,0.53
2019-06-15T10:58:34.959Z,0.60
2019-06-15T11:01:02.302Z,0.63
2019-06-15T11:03:29.674Z,0.33
2019-06-15T11:05:56.974Z,0.40
2019-06-15T11:08:24.836Z,0.53
2019-06-15T11:11:04.909Z,0.50
2019-06-15T11:13:32.341Z,0.53
2019-06-15T11:16:01.353Z,0.60
2019-06-15T11:18:29.263Z,0.67
2019-06-15T11:20:58.849Z,0.40
2019-06-15T11:23:25.761Z,0.50
2019-06-15T11:25:55.966Z,0.60
2019-06-15T11:28:24.070Z,0.97
2019-06-15T11:30:51.406Z,0.60
2019-06-15T11:33:18.741Z,0.63
2019-06-15T11:35:46.285Z,0.80
2019-06-15T11:38:13.514Z,0.70
2019-06-15T11:40:40.825Z,0.67
2019-06-15T11:43:08.197Z,0.60
2019-06-15T11:45:35.522Z,0.40
2019-06-15T11:48:02.865Z,0.40
2019-06-15T11:50:30.407Z,0.50
2019-06-15T11:52:58.005Z,0.50
2019-06-15T11:55:38.667Z,0.50
2019-06-15T11:57:54.715Z,0.90
2019-06-15T12:00:31.227Z,0.50
2019-06-15T12:02:55.465Z,0.60
2019-06-15T12:05:22.914Z,1.10
2019-06-15T12:07:50.441Z,0.60
2019-06-15T12:10:17.983Z,0.53
2019-06-15T12:12:45.532Z,0.60
2019-06-15T12:15:12.841Z,0.70
2019-06-15T12:17:40.212Z,0.53
2019-06-15T12:20:07.806Z,0.60
2019-06-15T12:22:35.133Z,0.53
2019-06-15T12:25:02.858Z,0.30
2019-06-15T12:27:30.393Z,0.57
2019-06-15T12:29:58.635Z,0.60
2019-06-15T12:32:26.190Z,0.60
2019-06-15T12:34:53.535Z,0.47
2019-06-15T12:37:20.882Z,0.67
2019-06-15T12:39:48.238Z,0.50
2019-06-15T12:42:15.867Z,0.73
2019-06-15T12:44:43.303Z,0.43
2019-06-15T12:47:10.781Z,0.53
2019-06-15T12:49:40.067Z,0.60
2019-06-15T12:52:07.370Z,0.50
2019-06-15T12:54:34.695Z,0.70
2019-06-15T12:57:05.881Z,0.60
2019-06-15T12:59:33.434Z,0.80
2019-06-15T13:02:03.497Z,0.70
2019-06-15T13:04:32.038Z,0.60
2019-06-15T13:06:59.274Z,0.70
2019-06-15T13:09:26.777Z,0.60
2019-06-15T13:11:54.216Z,0.60
2019-06-15T13:14:21.745Z,0.60
2019-06-15T13:16:49.095Z,0.53
2019-06-15T13:19:16.874Z,0.90
2019-06-15T13:21:44.125Z,0.70
2019-06-15T13:24:11.450Z,0.70
2019-06-15T13:26:42.648Z,0.70
2019-06-15T13:29:10.301Z,1.10
2019-06-15T13:31:37.750Z,0.90
2019-06-15T13:34:05.465Z,0.87
2019-06-15T13:36:33.886Z,0.77
2019-06-15T13:39:01.300Z,0.80
2019-06-15T13:41:30.509Z,0.70
2019-06-15T13:44:02.455Z,0.90
2019-06-15T13:46:29.841Z,1.00
2019-06-15T13:48:57.358Z,0.80
2019-06-15T13:51:24.794Z,1.27
2019-06-15T13:53:52.449Z,0.80
2019-06-15T13:56:19.765Z,0.93
2019-06-15T13:58:47.129Z,0.77
2019-06-15T14:01:14.745Z,0.73
2019-06-15T14:03:43.507Z,0.67
2019-06-15T14:06:11.093Z,0.90
2019-06-15T14:08:40.037Z,0.80
2019-06-15T14:11:07.501Z,0.70
2019-06-15T14:13:35.047Z,0.80
2019-06-15T14:16:02.625Z,1.00
2019-06-15T14:18:30.084Z,0.77
2019-06-15T14:20:57.599Z,1.27
2019-06-15T14:23:25.039Z,0.90
2019-06-15T14:25:52.578Z,0.80
2019-06-15T14:28:19.837Z,0.90
2019-06-15T14:30:47.171Z,0.80
2019-06-15T14:33:14.683Z,1.20
2019-06-15T14:35:44.294Z,0.87
2019-06-15T14:38:11.657Z,1.00
2019-06-15T14:40:39.486Z,0.73
2019-06-15T14:43:06.865Z,0.80
2019-06-15T14:45:34.197Z,1.00
2019-06-15T14:48:01.851Z,1.03
2019-06-15T14:50:29.222Z,0.97
2019-06-15T14:52:56.746Z,0.80
2019-06-15T14:55:26.082Z,1.03
2019-06-15T14:57:53.645Z,1.07
2019-06-15T15:00:21.311Z,1.13
2019-06-15T15:02:48.881Z,0.80
2019-06-15T15:05:18.041Z,0.70
2019-06-15T15:07:46.963Z,0.87
2019-06-15T15:10:16.348Z,0.97
2019-06-15T15:12:45.903Z,0.80
2019-06-15T15:15:12.844Z,0.80
2019-06-15T15:17:40.158Z,0.70
2019-06-15T15:20:07.500Z,0.90
2019-06-15T15:22:36.927Z,0.97
2019-06-15T15:25:06.500Z,0.90
2019-06-15T15:27:33.933Z,1.10
2019-06-15T15:30:01.933Z,1.30
2019-06-15T15:32:31.688Z,1.20
2019-06-15T15:34:58.938Z,1.07
2019-06-15T15:37:27.006Z,0.80
2019-06-15T15:39:56.466Z,0.90
2019-06-15T15:42:26.632Z,0.90
2019-06-15T15:44:53.317Z,1.00
2019-06-15T15:47:20.775Z,0.80
2019-06-15T15:49:48.314Z,0.77
2019-06-15T15:52:17.076Z,0.70
2019-06-15T15:54:46.813Z,1.10
2019-06-15T15:57:17.210Z,0.70
2019-06-15T15:59:46.802Z,0.87
2019-06-15T16:02:16.092Z,0.90
2019-06-15T16:04:43.690Z,0.90
2019-06-15T16:07:14.013Z,0.80
2019-06-15T16:09:45.293Z,0.90
2019-06-15T16:12:12.669Z,1.00
2019-06-15T16:14:40.229Z,1.00
2019-06-15T16:17:07.861Z,0.80
2019-06-15T16:19:35.409Z,0.90
2019-06-15T16:22:02.969Z,1.03
2019-06-15T16:24:30.489Z,1.03
2019-06-15T16:26:58.002Z,0.70
2019-06-15T16:29:25.348Z,1.23
2019-06-15T16:34:41.372Z,1.00
2019-06-15T16:37:09.320Z,1.10
2019-06-15T16:39:38.049Z,0.93
2019-06-15T16:42:06.582Z,0.90
2019-06-15T16:44:36.424Z,1.43
2019-06-15T16:47:03.137Z,0.93
2019-06-15T16:49:30.883Z,1.00
2019-06-15T16:51:58.245Z,0.97
2019-06-15T16:57:07.560Z,1.10
2019-06-15T16:59:36.351Z,1.10
2019-06-15T17:02:06.449Z,1.00
2019-06-15T17:04:36.175Z,1.13
2019-06-15T17:07:03.097Z,0.87
2019-06-15T17:09:30.402Z,1.00
2019-06-15T17:11:57.747Z,1.10
2019-06-15T17:14:27.093Z,0.90
2019-06-15T17:16:56.556Z,1.17
2019-06-15T17:19:23.309Z,1.73
2019-06-15T17:21:50.553Z,1.10
2019-06-15T17:24:17.864Z,1.40
2019-06-15T17:26:46.819Z,1.10
2019-06-15T17:29:16.344Z,1.03
2019-06-15T17:31:46.541Z,1.30
2019-06-15T17:34:12.932Z,1.10
2019-06-15T17:36:41.525Z,1.30
2019-06-15T17:39:09.041Z,1.40
2019-06-15T17:41:36.681Z,1.20
2019-06-15T17:44:06.122Z,2.10
2019-06-15T17:46:33.334Z,1.20
2019-06-15T17:49:00.843Z,0.97
2019-06-15T17:51:28.078Z,1.83
2019-06-15T17:53:56.410Z,1.40
2019-06-15T17:56:23.826Z,1.30
2019-06-15T17:58:51.289Z,1.27
2019-06-15T18:01:18.621Z,0.93
2019-06-15T18:03:53.842Z,1.30
2019-06-15T18:06:17.413Z,1.37
2019-06-15T18:08:46.385Z,1.00
2019-06-15T18:11:16.550Z,1.03
2019-06-15T18:13:43.554Z,1.40
2019-06-15T18:16:10.890Z,1.10
2019-06-15T18:18:38.830Z,1.10
2019-06-15T18:21:07.148Z,1.37
2019-06-15T18:23:36.752Z,1.33
2019-06-15T18:26:03.863Z,1.30
2019-06-15T18:28:31.121Z,0.93
2019-06-15T18:30:58.542Z,1.13
2019-06-15T18:33:27.197Z,1.17
2019-06-15T18:35:54.958Z,1.33
2019-06-15T18:38:22.509Z,1.00
2019-06-15T18:40:50.137Z,1.50
2019-06-15T18:43:17.658Z,1.17
2019-06-15T18:45:47.189Z,1.00
2019-06-15T18:48:16.600Z,1.37
2019-06-15T18:50:44.984Z,1.30
2019-06-15T18:53:13.205Z,1.40
2019-06-15T18:55:40.721Z,1.10
2019-06-15T18:58:08.187Z,1.33
2019-06-15T19:00:37.121Z,1.10
2019-06-15T19:03:06.825Z,1.27
2019-06-15T19:05:36.954Z,0.97
2019-06-15T19:08:06.370Z,1.10
2019-06-15T19:10:33.854Z,1.50
2019-06-15T19:13:01.125Z,1.60
2019-06-15T19:15:28.441Z,1.10
2019-06-15T19:17:56.065Z,1.40
2019-06-15T19:20:23.507Z,1.33
2019-06-15T19:22:51.532Z,1.30
2019-06-15T19:25:19.971Z,0.90
2019-06-15T19:27:47.277Z,1.00
2019-06-15T19:30:14.811Z,1.00
2019-06-15T19:32:42.204Z,1.17
2019-06-15T19:35:09.732Z,1.33
2019-06-15T19:37:37.255Z,1.03
2019-06-15T19:40:07.297Z,1.10
2019-06-15T19:42:36.486Z,1.40
2019-06-15T19:45:10.119Z,0.90
2019-06-15T19:47:34.363Z,1.00
2019-06-15T19:50:01.801Z,1.10
2019-06-15T19:52:29.196Z,1.10
2019-06-15T19:54:57.373Z,1.20
2019-06-15T19:57:27.035Z,1.10
2019-06-15T19:59:56.057Z,1.00
2019-06-15T20:02:22.865Z,1.07
2019-06-15T20:05:00.304Z,1.30
2019-06-15T20:07:19.377Z,1.10
2019-06-15T20:09:48.244Z,1.40
2019-06-15T20:12:20.990Z,1.20
2019-06-15T20:14:48.653Z,1.17
2019-06-15T20:17:17.503Z,1.30
2019-06-15T20:19:50.348Z,1.27
2019-06-15T20:22:18.963Z,0.90
2019-06-15T20:24:47.589Z,1.10
2019-06-15T20:27:17.434Z,1.40
2019-06-15T20:29:47.567Z,1.00
2019-06-15T20:32:17.380Z,1.43
2019-06-15T20:34:46.518Z,1.00
2019-06-15T20:37:16.673Z,1.13
2019-06-15T20:39:47.165Z,1.40
2019-06-15T20:42:16.411Z,1.23
2019-06-15T20:44:46.059Z,1.40
2019-06-15T20:47:14.597Z,0.93
2019-06-15T20:49:46.281Z,1.00
2019-06-15T20:52:12.761Z,1.33
2019-06-15T20:54:40.211Z,1.00
2019-06-15T20:57:07.533Z,1.10
2019-06-15T20:59:36.943Z,1.20
2019-06-15T21:02:06.551Z,1.00
2019-06-15T21:04:33.229Z,1.03
2019-06-15T21:07:00.537Z,1.30
2019-06-15T21:09:27.875Z,1.00
2019-06-15T21:11:55.186Z,1.10
2019-06-15T21:14:22.440Z,0.90
2019-06-15T21:16:49.733Z,1.23
2019-06-15T21:19:17.194Z,1.03
2019-06-15T21:21:47.213Z,0.93
2019-06-15T21:24:16.896Z,1.00
2019-06-15T21:26:44.248Z,0.80
2019-06-15T21:29:11.764Z,1.10
2019-06-15T21:31:39.739Z,1.17
2019-06-15T21:34:07.290Z,1.30
2019-06-15T21:36:37.719Z,1.13
2019-06-15T21:39:06.873Z,0.90
2019-06-15T21:41:36.653Z,1.40
2019-06-15T21:44:06.166Z,1.50
2019-06-15T21:46:33.235Z,1.13
2019-06-15T21:49:02.764Z,1.00
2019-06-15T21:51:30.259Z,1.10
2019-06-15T21:53:57.664Z,1.00
2019-06-15T21:56:28.915Z,1.10
2019-06-15T21:58:56.402Z,0.97
2019-06-15T22:01:30.772Z,0.90
2019-06-15T22:03:58.000Z,1.13
2019-06-15T22:06:26.287Z,0.90
2019-06-15T22:08:53.725Z,0.90
2019-06-15T22:11:21.036Z,0.97
2019-06-15T22:13:48.345Z,1.00
2019-06-15T22:16:16.818Z,0.90
2019-06-15T22:18:47.213Z,0.97
2019-06-15T22:21:15.986Z,1.27
2019-06-15T22:23:42.877Z,1.07
2019-06-15T22:26:10.176Z,1.00
2019-06-15T22:28:39.834Z,1.00
2019-06-15T22:31:06.978Z,0.97
2019-06-15T22:33:36.197Z,1.10
2019-06-15T22:36:21.298Z,1.03
2019-06-15T22:38:39.499Z,1.20
2019-06-15T22:41:09.955Z,1.00
2019-06-15T22:43:38.121Z,0.80
2019-06-15T22:46:07.529Z,1.00
2019-06-15T22:48:36.173Z,1.13
2019-06-15T22:51:06.147Z,1.00
2019-06-15T22:53:36.482Z,1.00
2019-06-15T22:56:06.862Z,0.90
2019-06-15T22:58:36.802Z,1.13
2019-06-15T23:01:06.198Z,0.93
2019-06-15T23:03:37.469Z,0.80
2019-06-15T23:06:06.943Z,1.10
2019-06-15T23:08:36.901Z,1.00
2019-06-15T23:11:06.764Z,0.90
2019-06-15T23:13:39.496Z,0.83
2019-06-15T23:16:08.439Z,1.00
2019-06-15T23:18:35.875Z,1.17
2019-06-15T23:21:06.202Z,1.03
2019-06-15T23:23:33.217Z,1.10
2019-06-15T23:26:06.493Z,0.90
2019-06-15T23:28:35.928Z,1.10
2019-06-15T23:31:03.167Z,1.00
2019-06-15T23:33:30.859Z,0.83
2019-06-15T23:36:03.490Z,0.90
2019-06-15T23:38:30.813Z,0.83
2019-06-15T23:40:58.169Z,0.90
2019-06-15T23:43:26.908Z,1.50
2019-06-15T23:45:56.120Z,0.80
2019-06-15T23:48:23.523Z,1.03
2019-06-15T23:50:50.874Z,0.80
2019-06-15T23:53:19.283Z,1.00
2019-06-15T23:55:47.366Z,1.33
2019-06-15T23:58:17.328Z,0.97
